createdAt,value
2019-06-10T00:03:04.454Z,91.50
2019-06-10T00:09:11.524Z,90.80
2019-06-10T00:15:12.587Z,91.10
2019-06-10T00:21:14.203Z,90.20
2019-06-10T00:27:15.748Z,90.50
2019-06-10T00:33:17.499Z,90.40
2019-06-10T00:39:22.282Z,89.40
2019-06-10T00:45:23.817Z,90.30
2019-06-10T00:57:28.200Z,91.20
2019-06-10T01:15:35.214Z,92.60
2019-06-10T01:21:36.868Z,92.80
2019-06-10T01:33:42.818Z,92.90
2019-06-10T01:39:44.261Z,93.20
2019-06-10T01:45:45.785Z,93.60
2019-06-10T02:09:54.680Z,92.60
2019-06-10T02:28:02.504Z,92.90
2019-06-10T02:34:04.234Z,92.70
2019-06-10T02:40:07.172Z,93.00
2019-06-10T02:58:23.176Z,94.00
2019-06-10T03:04:31.426Z,94.30
2019-06-10T03:10:31.081Z,94.80
2019-06-10T03:16:32.921Z,95.00
2019-06-10T03:22:35.527Z,95.10
2019-06-10T03:28:37.043Z,95.00
2019-06-10T03:34:46.032Z,94.90
2019-06-10T03:40:43.426Z,94.80
2019-06-10T03:46:44.975Z,94.30
2019-06-10T03:52:46.457Z,94.00
2019-06-10T03:58:47.996Z,94.00
2019-06-10T04:04:49.458Z,93.80
2019-06-10T04:10:52.083Z,94.50
2019-06-10T04:16:53.581Z,94.20
2019-06-10T04:22:55.156Z,94.10
2019-06-10T04:28:56.646Z,93.80
2019-06-10T04:34:58.182Z,93.00
2019-06-10T04:40:59.709Z,92.80
2019-06-10T04:47:02.713Z,93.00
2019-06-10T04:53:04.501Z,92.20
2019-06-10T04:59:06.058Z,92.50
2019-06-10T05:05:09.702Z,92.20
2019-06-10T05:11:12.822Z,92.30
2019-06-10T05:17:14.468Z,90.30
2019-06-10T05:23:15.996Z,90.10
2019-06-10T05:29:17.468Z,87.80
2019-06-10T05:35:20.476Z,86.60
2019-06-10T05:41:24.868Z,85.70
2019-06-10T05:47:27.926Z,82.80
2019-06-10T05:53:29.306Z,82.10
2019-06-10T05:59:31.571Z,82.00
2019-06-10T06:05:36.107Z,80.10
2019-06-10T06:11:37.892Z,80.80
2019-06-10T06:17:39.322Z,74.40
2019-06-10T06:23:43.733Z,72.50
2019-06-10T06:29:46.167Z,70.20
2019-06-10T06:35:48.762Z,69.70
2019-06-10T06:41:52.708Z,70.00
2019-06-10T06:47:55.991Z,71.60
2019-06-10T06:53:57.593Z,71.40
2019-06-10T06:59:59.092Z,70.60
2019-06-10T07:06:02.611Z,69.60
2019-06-10T07:12:06.749Z,68.30
2019-06-10T07:18:09.011Z,70.00
2019-06-10T07:24:12.586Z,70.60
2019-06-10T07:30:15.182Z,70.00
2019-06-10T07:36:17.189Z,70.40
2019-06-10T07:42:18.654Z,71.50
2019-06-10T07:48:22.210Z,75.30
2019-06-10T07:54:23.936Z,76.20
2019-06-10T08:00:25.758Z,76.50
2019-06-10T08:06:27.260Z,76.00
2019-06-10T08:12:29.142Z,72.40
2019-06-10T08:18:38.416Z,72.40
2019-06-10T08:24:35.320Z,73.80
2019-06-10T08:30:37.652Z,72.50
2019-06-10T08:36:39.937Z,73.60
2019-06-10T08:42:44.136Z,73.10
2019-06-10T08:48:48.109Z,74.10
2019-06-10T08:54:53.641Z,71.60
2019-06-10T09:00:53.924Z,69.30
2019-06-10T09:06:56.315Z,68.10
2019-06-10T09:12:57.771Z,65.50
2019-06-10T09:18:59.386Z,66.00
2019-06-10T09:25:02.919Z,69.80
2019-06-10T09:31:06.691Z,70.00
2019-06-10T09:37:08.250Z,65.40
2019-06-10T09:43:09.903Z,65.10
2019-06-10T09:49:12.791Z,59.80
2019-06-10T09:55:16.446Z,62.80
2019-06-10T10:01:17.999Z,61.00
2019-06-10T10:07:22.512Z,64.20
2019-06-10T10:13:24.271Z,62.10
2019-06-10T10:19:26.934Z,62.00
2019-06-10T10:25:29.249Z,61.20
2019-06-10T10:31:32.466Z,57.20
2019-06-10T10:43:46.796Z,59.70
2019-06-10T10:50:02.838Z,57.80
2019-06-10T10:56:08.264Z,60.60
2019-06-10T11:02:15.465Z,61.70
2019-06-10T11:08:17.469Z,60.10
2019-06-10T11:14:22.876Z,61.00
2019-06-10T11:20:24.087Z,60.70
2019-06-10T11:26:27.715Z,60.60
2019-06-10T11:32:29.678Z,57.10
2019-06-10T11:38:32.962Z,57.10
2019-06-10T11:44:35.578Z,58.70
2019-06-10T11:50:38.056Z,57.10
2019-06-10T11:56:45.056Z,54.70
2019-06-10T12:02:46.596Z,56.10
2019-06-10T12:08:48.928Z,55.40
2019-06-10T12:14:53.944Z,56.00
2019-06-10T12:20:57.586Z,58.50
2019-06-10T12:26:59.623Z,61.50
2019-06-10T12:33:02.824Z,59.10
2019-06-10T12:39:10.538Z,56.40
2019-06-10T12:45:12.795Z,56.20
2019-06-10T12:51:14.441Z,55.30
2019-06-10T12:57:16.520Z,56.90
2019-06-10T13:03:18.317Z,54.80
2019-06-10T13:09:20.003Z,56.10
2019-06-10T13:15:22.120Z,53.50
2019-06-10T13:27:26.145Z,53.00
2019-06-10T13:33:28.273Z,51.30
2019-06-10T13:39:29.851Z,55.00
2019-06-10T13:45:33.236Z,53.90
2019-06-10T13:51:35.603Z,55.70
2019-06-10T13:57:37.491Z,51.40
2019-06-10T14:03:38.920Z,49.90
2019-06-10T14:09:40.685Z,52.20
2019-06-10T14:15:42.911Z,50.80
2019-06-10T14:21:44.495Z,49.90
2019-06-10T14:27:45.993Z,56.20
2019-06-10T14:33:47.559Z,55.90
2019-06-10T14:39:49.000Z,57.30
2019-06-10T14:45:55.839Z,57.60
2019-06-10T14:51:57.356Z,53.80
2019-06-10T15:04:48.881Z,53.00
2019-06-10T15:10:52.836Z,53.70
2019-06-10T15:16:53.937Z,54.70
2019-06-10T15:22:55.625Z,56.30
2019-06-10T15:34:59.077Z,56.50
2019-06-10T15:41:00.665Z,58.50
2019-06-10T15:47:04.009Z,59.40
2019-06-10T15:53:05.597Z,62.70
2019-06-10T15:59:07.237Z,59.60
2019-06-10T16:05:09.088Z,60.30
2019-06-10T16:11:13.755Z,66.20
2019-06-10T16:17:17.382Z,67.40
2019-06-10T16:23:19.717Z,67.40
2019-06-10T16:29:23.805Z,69.70
2019-06-10T16:35:27.380Z,70.30
2019-06-10T16:41:32.331Z,71.30
2019-06-10T16:53:35.738Z,72.80
2019-06-10T16:59:37.657Z,74.70
2019-06-10T17:29:48.530Z,75.20
2019-06-10T17:41:53.890Z,77.10
2019-06-10T17:47:55.591Z,75.40
2019-06-10T17:53:57.338Z,77.50
2019-06-10T18:06:02.800Z,80.10
2019-06-10T18:12:04.700Z,80.80
2019-06-10T18:26:48.543Z,84.00
2019-06-10T18:32:52.402Z,84.90
2019-06-10T18:38:53.420Z,85.10
2019-06-10T18:44:55.026Z,87.90
2019-06-10T18:50:56.608Z,88.60
2019-06-10T18:56:58.422Z,89.60
2019-06-10T19:03:12.173Z,90.30
2019-06-10T19:09:07.063Z,90.20
2019-06-10T19:15:11.909Z,90.00
2019-06-10T19:21:14.263Z,90.10
2019-06-10T19:27:15.851Z,90.00
2019-06-10T19:33:17.369Z,90.10
2019-06-10T19:39:19.057Z,90.50
2019-06-10T19:45:26.860Z,90.90
2019-06-10T19:51:34.652Z,91.30
2019-06-10T19:57:37.477Z,91.70
2019-06-10T20:03:39.678Z,92.20
2019-06-10T20:09:44.530Z,92.70
2019-06-10T20:15:46.666Z,92.90
2019-06-10T20:21:48.943Z,92.70
2019-06-10T20:27:52.420Z,92.70
2019-06-10T20:33:54.142Z,93.40
2019-06-10T20:39:55.623Z,93.70
2019-06-10T20:45:58.294Z,93.70
2019-06-10T20:52:10.753Z,93.80
2019-06-10T20:58:07.321Z,94.20
2019-06-10T21:04:08.247Z,94.10
2019-06-10T21:10:10.091Z,94.30
2019-06-10T21:16:12.639Z,94.40
2019-06-10T21:22:17.203Z,94.50
2019-06-10T21:28:19.768Z,94.40
2019-06-10T21:34:25.104Z,93.40
2019-06-10T21:40:27.108Z,92.70
2019-06-10T21:46:29.385Z,92.70
2019-06-10T21:52:32.452Z,93.00
2019-06-10T21:58:35.394Z,93.40
2019-06-10T22:04:39.919Z,94.00
2019-06-10T22:10:44.159Z,94.20
2019-06-10T22:16:46.284Z,95.00
2019-06-10T22:22:48.571Z,95.00
2019-06-10T22:28:54.103Z,95.10
2019-06-10T22:34:55.390Z,95.50
2019-06-10T22:40:57.385Z,95.90
2019-06-10T22:47:00.112Z,96.50
2019-06-10T22:53:03.828Z,97.30
2019-06-10T22:59:05.712Z,98.00
2019-06-10T23:05:07.859Z,98.40
2019-06-10T23:17:00.026Z,98.60
2019-06-10T23:23:03.159Z,98.90
2019-06-10T23:29:04.845Z,98.90
2019-06-10T23:35:06.533Z,98.60
2019-06-10T23:41:09.710Z,98.60
2019-06-10T23:47:12.725Z,98.60
2019-06-10T23:53:14.406Z,98.60
2019-06-10T23:59:22.501Z,99.90
